sensor_id;sensor_type;location;lat;lon;timestamp;P1;durP1;ratioP1;P2;durP2;ratioP2
24147;SDS011;12309;51.450;-2.624;2023-04-28T00:00:02;27.10;;;15.17;;
24147;SDS011;12309;51.450;-2.624;2023-04-28T00:02:29;22.77;;;14.50;;
24147;SDS011;12309;51.450;-2.624;2023-04-28T00:04:55;24.77;;;15.13;;
24147;SDS011;12309;51.450;-2.624;2023-04-28T00:07:22;20.30;;;14.07;;
24147;SDS011;12309;51.450;-2.624;2023-04-28T00:09:47;19.73;;;14.30;;
24147;SDS011;12309;51.450;-2.624;2023-04-28T00:12:13;19.50;;;14.13;;
24147;SDS011;12309;51.450;-2.624;2023-04-28T00:14:38;19.45;;;13.80;;
24147;SDS011;12309;51.450;-2.624;2023-04-28T00:17:04;18.58;;;13.35;;
24147;SDS011;12309;51.450;-2.624;2023-04-28T00:19:30;20.52;;;13.23;;
24147;SDS011;12309;51.450;-2.624;2023-04-28T00:21:56;18.20;;;13.07;;
24147;SDS011;12309;51.450;-2.624;2023-04-28T00:24:22;20.13;;;13.10;;
24147;SDS011;12309;51.450;-2.624;2023-04-28T00:26:47;20.13;;;12.97;;
24147;SDS011;12309;51.450;-2.624;2023-04-28T00:29:13;17.40;;;11.37;;
24147;SDS011;12309;51.450;-2.624;2023-04-28T00:31:38;19.27;;;12.80;;
24147;SDS011;12309;51.450;-2.624;2023-04-28T00:34:04;17.73;;;11.60;;
24147;SDS011;12309;51.450;-2.624;2023-04-28T00:36:30;16.67;;;11.67;;
24147;SDS011;12309;51.450;-2.624;2023-04-28T00:38:56;16.70;;;11.63;;
24147;SDS011;12309;51.450;-2.624;2023-04-28T00:41:22;14.40;;;11.27;;
24147;SDS011;12309;51.450;-2.624;2023-04-28T00:43:48;16.93;;;11.20;;
24147;SDS011;12309;51.450;-2.624;2023-04-28T00:46:24;16.63;;;11.37;;
24147;SDS011;12309;51.450;-2.624;2023-04-28T00:48:53;14.10;;;10.50;;
24147;SDS011;12309;51.450;-2.624;2023-04-28T00:51:20;15.07;;;10.80;;
24147;SDS011;12309;51.450;-2.624;2023-04-28T00:53:45;11.27;;;8.33;;
24147;SDS011;12309;51.450;-2.624;2023-04-28T00:56:11;12.77;;;9.20;;
24147;SDS011;12309;51.450;-2.624;2023-04-28T00:58:37;12.55;;;8.68;;
24147;SDS011;12309;51.450;-2.624;2023-04-28T01:01:03;14.60;;;10.10;;
24147;SDS011;12309;51.450;-2.624;2023-04-28T01:03:32;14.52;;;9.77;;
24147;SDS011;12309;51.450;-2.624;2023-04-28T01:05:59;10.00;;;7.93;;
24147;SDS011;12309;51.450;-2.624;2023-04-28T01:08:29;12.53;;;9.27;;
24147;SDS011;12309;51.450;-2.624;2023-04-28T01:10:55;9.40;;;7.13;;
24147;SDS011;12309;51.450;-2.624;2023-04-28T01:13:21;10.77;;;8.03;;
24147;SDS011;12309;51.450;-2.624;2023-04-28T01:15:46;11.30;;;8.10;;
24147;SDS011;12309;51.450;-2.624;2023-04-28T01:18:12;10.67;;;6.60;;
24147;SDS011;12309;51.450;-2.624;2023-04-28T01:20:40;11.73;;;8.53;;
24147;SDS011;12309;51.450;-2.624;2023-04-28T01:23:10;7.83;;;4.83;;
24147;SDS011;12309;51.450;-2.624;2023-04-28T01:25:39;6.80;;;4.50;;
24147;SDS011;12309;51.450;-2.624;2023-04-28T01:28:06;4.90;;;3.70;;
24147;SDS011;12309;51.450;-2.624;2023-04-28T01:30:32;6.87;;;4.13;;
24147;SDS011;12309;51.450;-2.624;2023-04-28T01:32:57;4.87;;;3.63;;
24147;SDS011;12309;51.450;-2.624;2023-04-28T01:35:23;6.90;;;3.73;;
24147;SDS011;12309;51.450;-2.624;2023-04-28T01:37:49;4.27;;;3.60;;
24147;SDS011;12309;51.450;-2.624;2023-04-28T01:40:14;4.87;;;3.53;;
24147;SDS011;12309;51.450;-2.624;2023-04-28T01:42:40;4.03;;;3.30;;
24147;SDS011;12309;51.450;-2.624;2023-04-28T01:45:06;4.97;;;3.63;;
24147;SDS011;12309;51.450;-2.624;2023-04-28T01:47:32;4.20;;;3.60;;
24147;SDS011;12309;51.450;-2.624;2023-04-28T01:49:57;4.00;;;3.30;;
24147;SDS011;12309;51.450;-2.624;2023-04-28T01:52:23;4.83;;;3.77;;
24147;SDS011;12309;51.450;-2.624;2023-04-28T01:54:49;4.60;;;3.50;;
24147;SDS011;12309;51.450;-2.624;2023-04-28T01:57:15;4.23;;;3.47;;
24147;SDS011;12309;51.450;-2.624;2023-04-28T01:59:40;5.20;;;3.17;;
24147;SDS011;12309;51.450;-2.624;2023-04-28T02:02:06;3.53;;;3.00;;
24147;SDS011;12309;51.450;-2.624;2023-04-28T02:04:32;3.60;;;2.90;;
24147;SDS011;12309;51.450;-2.624;2023-04-28T02:06:57;3.67;;;2.60;;
24147;SDS011;12309;51.450;-2.624;2023-04-28T02:09:23;3.70;;;2.80;;
24147;SDS011;12309;51.450;-2.624;2023-04-28T02:11:49;3.57;;;2.70;;
24147;SDS011;12309;51.450;-2.624;2023-04-28T02:14:15;3.77;;;2.37;;
24147;SDS011;12309;51.450;-2.624;2023-04-28T02:16:41;4.37;;;2.50;;
24147;SDS011;12309;51.450;-2.624;2023-04-28T02:19:07;3.07;;;2.30;;
24147;SDS011;12309;51.450;-2.624;2023-04-28T02:21:32;2.90;;;2.33;;
24147;SDS011;12309;51.450;-2.624;2023-04-28T02:23:58;3.30;;;2.70;;
24147;SDS011;12309;51.450;-2.624;2023-04-28T02:26:24;3.07;;;2.67;;
24147;SDS011;12309;51.450;-2.624;2023-04-28T02:28:49;3.63;;;2.80;;
24147;SDS011;12309;51.450;-2.624;2023-04-28T02:31:15;4.43;;;2.30;;
24147;SDS011;12309;51.450;-2.624;2023-04-28T02:33:41;3.47;;;2.60;;
24147;SDS011;12309;51.450;-2.624;2023-04-28T02:36:07;4.37;;;2.80;;
24147;SDS011;12309;51.450;-2.624;2023-04-28T02:38:33;3.60;;;2.00;;
24147;SDS011;12309;51.450;-2.624;2023-04-28T02:40:59;3.23;;;2.20;;
24147;SDS011;12309;51.450;-2.624;2023-04-28T02:43:29;4.13;;;2.03;;
24147;SDS011;12309;51.450;-2.624;2023-04-28T02:45:56;3.63;;;1.90;;
24147;SDS011;12309;51.450;-2.624;2023-04-28T02:48:22;3.57;;;1.67;;
24147;SDS011;12309;51.450;-2.624;2023-04-28T02:50:48;2.10;;;1.80;;
24147;SDS011;12309;51.450;-2.624;2023-04-28T02:53:14;2.10;;;1.57;;
24147;SDS011;12309;51.450;-2.624;2023-04-28T02:55:39;1.83;;;1.30;;
24147;SDS011;12309;51.450;-2.624;2023-04-28T02:58:05;1.77;;;1.57;;
24147;SDS011;12309;51.450;-2.624;2023-04-28T03:00:31;2.73;;;1.50;;
24147;SDS011;12309;51.450;-2.624;2023-04-28T03:02:56;1.37;;;1.27;;
24147;SDS011;12309;51.450;-2.624;2023-04-28T03:05:22;1.50;;;1.10;;
24147;SDS011;12309;51.450;-2.624;2023-04-28T03:07:48;0.90;;;0.80;;
24147;SDS011;12309;51.450;-2.624;2023-04-28T03:10:13;2.17;;;0.70;;
24147;SDS011;12309;51.450;-2.624;2023-04-28T03:12:39;2.10;;;0.70;;
24147;SDS011;12309;51.450;-2.624;2023-04-28T03:15:05;0.50;;;0.40;;
24147;SDS011;12309;51.450;-2.624;2023-04-28T03:17:32;0.93;;;0.50;;
24147;SDS011;12309;51.450;-2.624;2023-04-28T03:20:00;0.33;;;0.20;;
24147;SDS011;12309;51.450;-2.624;2023-04-28T03:22:29;0.70;;;0.30;;
24147;SDS011;12309;51.450;-2.624;2023-04-28T03:24:55;0.57;;;0.20;;
24147;SDS011;12309;51.450;-2.624;2023-04-28T03:27:21;1.20;;;0.30;;
24147;SDS011;12309;51.450;-2.624;2023-04-28T03:29:47;0.70;;;0.33;;
24147;SDS011;12309;51.450;-2.624;2023-04-28T03:32:12;1.03;;;0.30;;
24147;SDS011;12309;51.450;-2.624;2023-04-28T03:34:38;0.20;;;0.20;;
24147;SDS011;12309;51.450;-2.624;2023-04-28T03:37:04;0.20;;;0.20;;
24147;SDS011;12309;51.450;-2.624;2023-04-28T03:39:29;0.40;;;0.20;;
24147;SDS011;12309;51.450;-2.624;2023-04-28T03:41:55;0.20;;;0.13;;
24147;SDS011;12309;51.450;-2.624;2023-04-28T03:44:21;0.57;;;0.10;;
24147;SDS011;12309;51.450;-2.624;2023-04-28T03:46:47;0.10;;;0.10;;
24147;SDS011;12309;51.450;-2.624;2023-04-28T03:49:13;0.20;;;0.10;;
24147;SDS011;12309;51.450;-2.624;2023-04-28T03:51:39;0.10;;;0.10;;
24147;SDS011;12309;51.450;-2.624;2023-04-28T03:54:05;0.30;;;0.10;;
24147;SDS011;12309;51.450;-2.624;2023-04-28T03:56:31;1.30;;;0.00;;
24147;SDS011;12309;51.450;-2.624;2023-04-28T03:58:57;0.10;;;0.03;;
24147;SDS011;12309;51.450;-2.624;2023-04-28T04:01:22;0.00;;;0.00;;
24147;SDS011;12309;51.450;-2.624;2023-04-28T04:03:48;0.07;;;0.07;;
24147;SDS011;12309;51.450;-2.624;2023-04-28T04:06:13;0.60;;;0.10;;
24147;SDS011;12309;51.450;-2.624;2023-04-28T04:08:39;0.60;;;0.10;;
24147;SDS011;12309;51.450;-2.624;2023-04-28T04:11:05;2.20;;;0.10;;
24147;SDS011;12309;51.450;-2.624;2023-04-28T04:13:31;0.30;;;0.10;;
24147;SDS011;12309;51.450;-2.624;2023-04-28T04:15:56;0.23;;;0.10;;
24147;SDS011;12309;51.450;-2.624;2023-04-28T04:18:22;0.37;;;0.10;;
24147;SDS011;12309;51.450;-2.624;2023-04-28T04:20:47;0.10;;;0.10;;
24147;SDS011;12309;51.450;-2.624;2023-04-28T04:23:14;0.20;;;0.10;;
24147;SDS011;12309;51.450;-2.624;2023-04-28T04:25:40;1.27;;;0.20;;
24147;SDS011;12309;51.450;-2.624;2023-04-28T04:28:06;0.30;;;0.10;;
24147;SDS011;12309;51.450;-2.624;2023-04-28T04:30:32;0.37;;;0.10;;
24147;SDS011;12309;51.450;-2.624;2023-04-28T04:32:58;0.27;;;0.10;;
24147;SDS011;12309;51.450;-2.624;2023-04-28T04:35:24;0.20;;;0.10;;
24147;SDS011;12309;51.450;-2.624;2023-04-28T04:37:50;0.10;;;0.00;;
24147;SDS011;12309;51.450;-2.624;2023-04-28T04:40:15;0.43;;;0.10;;
24147;SDS011;12309;51.450;-2.624;2023-04-28T04:42:41;1.00;;;0.10;;
24147;SDS011;12309;51.450;-2.624;2023-04-28T04:45:07;0.90;;;0.10;;
24147;SDS011;12309;51.450;-2.624;2023-04-28T04:47:33;1.80;;;0.10;;
24147;SDS011;12309;51.450;-2.624;2023-04-28T04:49:59;0.93;;;0.40;;
24147;SDS011;12309;51.450;-2.624;2023-04-28T04:52:24;0.10;;;0.00;;
24147;SDS011;12309;51.450;-2.624;2023-04-28T04:54:50;2.33;;;0.30;;
24147;SDS011;12309;51.450;-2.624;2023-04-28T04:57:16;1.10;;;0.20;;
24147;SDS011;12309;51.450;-2.624;2023-04-28T04:59:42;2.17;;;0.43;;
24147;SDS011;12309;51.450;-2.624;2023-04-28T05:02:07;3.43;;;0.40;;
24147;SDS011;12309;51.450;-2.624;2023-04-28T05:04:33;0.60;;;0.20;;
24147;SDS011;12309;51.450;-2.624;2023-04-28T05:06:58;2.97;;;0.40;;
24147;SDS011;12309;51.450;-2.624;2023-04-28T05:09:24;1.77;;;0.50;;
24147;SDS011;12309;51.450;-2.624;2023-04-28T05:11:50;2.60;;;0.60;;
24147;SDS011;12309;51.450;-2.624;2023-04-28T05:14:16;3.50;;;0.53;;
24147;SDS011;12309;51.450;-2.624;2023-04-28T05:16:41;1.57;;;0.20;;
24147;SDS011;12309;51.450;-2.624;2023-04-28T05:19:08;1.27;;;0.20;;
24147;SDS011;12309;51.450;-2.624;2023-04-28T05:21:33;1.37;;;0.20;;
24147;SDS011;12309;51.450;-2.624;2023-04-28T05:24:00;2.87;;;0.30;;
24147;SDS011;12309;51.450;-2.624;2023-04-28T05:26:26;2.27;;;0.33;;
24147;SDS011;12309;51.450;-2.624;2023-04-28T05:28:52;2.70;;;0.40;;
24147;SDS011;12309;51.450;-2.624;2023-04-28T05:31:18;0.50;;;0.20;;
24147;SDS011;12309;51.450;-2.624;2023-04-28T05:33:44;0.97;;;0.30;;
24147;SDS011;12309;51.450;-2.624;2023-04-28T05:36:10;1.97;;;0.30;;
24147;SDS011;12309;51.450;-2.624;2023-04-28T05:38:36;2.90;;;0.50;;
24147;SDS011;12309;51.450;-2.624;2023-04-28T05:41:02;2.40;;;0.50;;
24147;SDS011;12309;51.450;-2.624;2023-04-28T05:43:28;1.13;;;0.40;;
24147;SDS011;12309;51.450;-2.624;2023-04-28T05:45:53;1.90;;;0.63;;
24147;SDS011;12309;51.450;-2.624;2023-04-28T05:48:19;5.50;;;1.00;;
24147;SDS011;12309;51.450;-2.624;2023-04-28T05:50:45;1.83;;;0.67;;
24147;SDS011;12309;51.450;-2.624;2023-04-28T05:53:10;2.60;;;0.80;;
24147;SDS011;12309;51.450;-2.624;2023-04-28T05:55:36;8.47;;;1.00;;
24147;SDS011;12309;51.450;-2.624;2023-04-28T05:58:03;3.27;;;0.80;;
24147;SDS011;12309;51.450;-2.624;2023-04-28T06:00:28;3.23;;;1.30;;
24147;SDS011;12309;51.450;-2.624;2023-04-28T06:02:54;4.00;;;1.20;;
24147;SDS011;12309;51.450;-2.624;2023-04-28T06:05:20;2.40;;;1.10;;
24147;SDS011;12309;51.450;-2.624;2023-04-28T06:07:46;4.90;;;1.43;;
24147;SDS011;12309;51.450;-2.624;2023-04-28T06:10:12;2.60;;;1.30;;
24147;SDS011;12309;51.450;-2.624;2023-04-28T06:12:38;2.33;;;1.40;;
24147;SDS011;12309;51.450;-2.624;2023-04-28T06:15:04;6.30;;;1.70;;
24147;SDS011;12309;51.450;-2.624;2023-04-28T06:17:30;4.87;;;1.90;;
24147;SDS011;12309;51.450;-2.624;2023-04-28T06:19:57;5.03;;;2.00;;
24147;SDS011;12309;51.450;-2.624;2023-04-28T06:22:26;4.00;;;1.80;;
24147;SDS011;12309;51.450;-2.624;2023-04-28T06:24:51;4.17;;;1.80;;
24147;SDS011;12309;51.450;-2.624;2023-04-28T06:27:17;5.67;;;2.27;;
24147;SDS011;12309;51.450;-2.624;2023-04-28T06:29:43;3.83;;;1.50;;
24147;SDS011;12309;51.450;-2.624;2023-04-28T06:32:08;6.10;;;1.73;;
24147;SDS011;12309;51.450;-2.624;2023-04-28T06:34:34;4.03;;;1.93;;
24147;SDS011;12309;51.450;-2.624;2023-04-28T06:37:01;4.00;;;2.20;;
24147;SDS011;12309;51.450;-2.624;2023-04-28T06:39:27;6.50;;;2.43;;
24147;SDS011;12309;51.450;-2.624;2023-04-28T06:41:53;4.40;;;2.20;;
24147;SDS011;12309;51.450;-2.624;2023-04-28T06:44:18;5.30;;;1.73;;
24147;SDS011;12309;51.450;-2.624;2023-04-28T06:46:44;3.33;;;2.03;;
24147;SDS011;12309;51.450;-2.624;2023-04-28T06:49:10;3.27;;;2.30;;
24147;SDS011;12309;51.450;-2.624;2023-04-28T06:51:35;3.87;;;2.17;;
24147;SDS011;12309;51.450;-2.624;2023-04-28T06:54:01;6.83;;;3.00;;
24147;SDS011;12309;51.450;-2.624;2023-04-28T06:56:27;6.13;;;2.97;;
24147;SDS011;12309;51.450;-2.624;2023-04-28T06:58:55;6.47;;;3.60;;
24147;SDS011;12309;51.450;-2.624;2023-04-28T07:01:21;6.27;;;3.57;;
24147;SDS011;12309;51.450;-2.624;2023-04-28T07:03:47;7.07;;;3.97;;
24147;SDS011;12309;51.450;-2.624;2023-04-28T07:06:13;6.60;;;4.60;;
24147;SDS011;12309;51.450;-2.624;2023-04-28T07:08:40;9.83;;;4.27;;
24147;SDS011;12309;51.450;-2.624;2023-04-28T07:11:06;6.93;;;4.53;;
24147;SDS011;12309;51.450;-2.624;2023-04-28T07:13:32;7.30;;;4.87;;
24147;SDS011;12309;51.450;-2.624;2023-04-28T07:15:57;10.80;;;5.50;;
24147;SDS011;12309;51.450;-2.624;2023-04-28T07:18:23;13.27;;;5.63;;
24147;SDS011;12309;51.450;-2.624;2023-04-28T07:20:49;9.27;;;5.20;;
24147;SDS011;12309;51.450;-2.624;2023-04-28T07:23:15;10.23;;;6.07;;
24147;SDS011;12309;51.450;-2.624;2023-04-28T07:25:40;11.20;;;6.23;;
24147;SDS011;12309;51.450;-2.624;2023-04-28T07:28:07;9.60;;;5.37;;
24147;SDS011;12309;51.450;-2.624;2023-04-28T07:30:33;10.73;;;5.70;;
24147;SDS011;12309;51.450;-2.624;2023-04-28T07:32:59;12.77;;;6.77;;
24147;SDS011;12309;51.450;-2.624;2023-04-28T07:35:25;10.10;;;6.37;;
24147;SDS011;12309;51.450;-2.624;2023-04-28T07:37:51;8.77;;;6.73;;
24147;SDS011;12309;51.450;-2.624;2023-04-28T07:40:17;9.93;;;6.50;;
24147;SDS011;12309;51.450;-2.624;2023-04-28T07:42:43;10.53;;;6.40;;
24147;SDS011;12309;51.450;-2.624;2023-04-28T07:45:09;11.83;;;6.87;;
24147;SDS011;12309;51.450;-2.624;2023-04-28T07:47:35;14.40;;;6.70;;
24147;SDS011;12309;51.450;-2.624;2023-04-28T07:50:01;10.07;;;6.23;;
24147;SDS011;12309;51.450;-2.624;2023-04-28T07:52:29;10.83;;;6.70;;
24147;SDS011;12309;51.450;-2.624;2023-04-28T07:54:55;11.53;;;6.30;;
24147;SDS011;12309;51.450;-2.624;2023-04-28T07:57:21;11.17;;;6.70;;
24147;SDS011;12309;51.450;-2.624;2023-04-28T07:59:47;11.70;;;7.40;;
24147;SDS011;12309;51.450;-2.624;2023-04-28T08:02:12;9.13;;;7.03;;
24147;SDS011;12309;51.450;-2.624;2023-04-28T08:04:39;11.48;;;6.70;;
24147;SDS011;12309;51.450;-2.624;2023-04-28T08:07:05;9.20;;;6.30;;
24147;SDS011;12309;51.450;-2.624;2023-04-28T08:09:30;9.30;;;6.32;;
24147;SDS011;12309;51.450;-2.624;2023-04-28T08:11:56;14.75;;;7.10;;
24147;SDS011;12309;51.450;-2.624;2023-04-28T08:14:23;10.18;;;6.78;;
24147;SDS011;12309;51.450;-2.624;2023-04-28T08:16:49;11.75;;;7.05;;
24147;SDS011;12309;51.450;-2.624;2023-04-28T08:19:14;12.02;;;6.93;;
24147;SDS011;12309;51.450;-2.624;2023-04-28T08:21:40;13.77;;;7.75;;
24147;SDS011;12309;51.450;-2.624;2023-04-28T08:24:06;11.18;;;6.82;;
24147;SDS011;12309;51.450;-2.624;2023-04-28T08:26:34;10.68;;;6.50;;
24147;SDS011;12309;51.450;-2.624;2023-04-28T08:29:03;13.38;;;7.05;;
24147;SDS011;12309;51.450;-2.624;2023-04-28T08:31:29;10.40;;;5.85;;
24147;SDS011;12309;51.450;-2.624;2023-04-28T08:33:55;10.38;;;6.85;;
24147;SDS011;12309;51.450;-2.624;2023-04-28T08:36:21;13.35;;;6.90;;
24147;SDS011;12309;51.450;-2.624;2023-04-28T08:38:49;14.45;;;7.85;;
24147;SDS011;12309;51.450;-2.624;2023-04-28T08:41:14;10.82;;;7.45;;
24147;SDS011;12309;51.450;-2.624;2023-04-28T08:43:41;12.80;;;7.43;;
24147;SDS011;12309;51.450;-2.624;2023-04-28T08:46:07;17.25;;;8.00;;
24147;SDS011;12309;51.450;-2.624;2023-04-28T08:48:43;12.25;;;7.97;;
24147;SDS011;12309;51.450;-2.624;2023-04-28T08:51:12;10.77;;;7.30;;
24147;SDS011;12309;51.450;-2.624;2023-04-28T08:53:44;11.48;;;6.85;;
24147;SDS011;12309;51.450;-2.624;2023-04-28T08:56:17;12.38;;;8.50;;
24147;SDS011;12309;51.450;-2.624;2023-04-28T08:58:45;11.02;;;7.78;;
24147;SDS011;12309;51.450;-2.624;2023-04-28T09:01:10;15.30;;;8.80;;
24147;SDS011;12309;51.450;-2.624;2023-04-28T09:03:36;12.32;;;8.00;;
24147;SDS011;12309;51.450;-2.624;2023-04-28T09:06:01;16.42;;;9.20;;
24147;SDS011;12309;51.450;-2.624;2023-04-28T09:08:27;11.95;;;8.68;;
24147;SDS011;12309;51.450;-2.624;2023-04-28T09:11:04;14.20;;;8.52;;
24147;SDS011;12309;51.450;-2.624;2023-04-28T09:13:33;14.70;;;9.15;;
24147;SDS011;12309;51.450;-2.624;2023-04-28T09:15:59;17.23;;;8.65;;
24147;SDS011;12309;51.450;-2.624;2023-04-28T09:18:27;14.82;;;8.05;;
24147;SDS011;12309;51.450;-2.624;2023-04-28T09:21:05;12.77;;;8.40;;
24147;SDS011;12309;51.450;-2.624;2023-04-28T09:23:32;19.70;;;8.07;;
24147;SDS011;12309;51.450;-2.624;2023-04-28T09:26:00;12.77;;;7.55;;
24147;SDS011;12309;51.450;-2.624;2023-04-28T09:28:32;16.88;;;8.60;;
24147;SDS011;12309;51.450;-2.624;2023-04-28T09:30:59;13.18;;;7.88;;
24147;SDS011;12309;51.450;-2.624;2023-04-28T09:33:25;11.35;;;7.00;;
24147;SDS011;12309;51.450;-2.624;2023-04-28T09:35:51;13.30;;;7.60;;
24147;SDS011;12309;51.450;-2.624;2023-04-28T09:38:17;11.65;;;7.10;;
24147;SDS011;12309;51.450;-2.624;2023-04-28T09:41:02;11.88;;;7.57;;
24147;SDS011;12309;51.450;-2.624;2023-04-28T09:43:29;12.73;;;8.38;;
24147;SDS011;12309;51.450;-2.624;2023-04-28T09:45:57;52.88;;;10.90;;
24147;SDS011;12309;51.450;-2.624;2023-04-28T09:48:28;27.88;;;9.23;;
24147;SDS011;12309;51.450;-2.624;2023-04-28T09:51:01;15.63;;;8.13;;
24147;SDS011;12309;51.450;-2.624;2023-04-28T09:53:31;12.55;;;7.65;;
24147;SDS011;12309;51.450;-2.624;2023-04-28T09:55:58;37.10;;;9.55;;
24147;SDS011;12309;51.450;-2.624;2023-04-28T09:58:26;13.05;;;7.47;;
24147;SDS011;12309;51.450;-2.624;2023-04-28T10:00:56;11.73;;;7.93;;
24147;SDS011;12309;51.450;-2.624;2023-04-28T10:03:24;11.63;;;7.43;;
24147;SDS011;12309;51.450;-2.624;2023-04-28T10:05:51;12.70;;;6.70;;
24147;SDS011;12309;51.450;-2.624;2023-04-28T10:08:21;11.48;;;6.55;;
24147;SDS011;12309;51.450;-2.624;2023-04-28T10:10:50;10.65;;;6.80;;
24147;SDS011;12309;51.450;-2.624;2023-04-28T10:13:18;9.52;;;6.78;;
24147;SDS011;12309;51.450;-2.624;2023-04-28T10:15:45;13.70;;;6.47;;
24147;SDS011;12309;51.450;-2.624;2023-04-28T10:18:12;9.13;;;6.30;;
24147;SDS011;12309;51.450;-2.624;2023-04-28T10:20:47;10.40;;;5.43;;
24147;SDS011;12309;51.450;-2.624;2023-04-28T10:25:48;9.10;;;4.70;;
24147;SDS011;12309;51.450;-2.624;2023-04-28T10:28:18;7.78;;;4.00;;
24147;SDS011;12309;51.450;-2.624;2023-04-28T10:31:07;10.35;;;4.32;;
24147;SDS011;12309;51.450;-2.624;2023-04-28T10:33:33;5.93;;;3.60;;
24147;SDS011;12309;51.450;-2.624;2023-04-28T10:35:59;5.65;;;3.78;;
24147;SDS011;12309;51.450;-2.624;2023-04-28T10:38:25;10.60;;;4.55;;
24147;SDS011;12309;51.450;-2.624;2023-04-28T10:40:51;5.85;;;4.25;;
24147;SDS011;12309;51.450;-2.624;2023-04-28T10:58:39;6.93;;;4.68;;
24147;SDS011;12309;51.450;-2.624;2023-04-28T11:06:23;8.57;;;4.72;;
24147;SDS011;12309;51.450;-2.624;2023-04-28T11:14:29;6.43;;;4.00;;
24147;SDS011;12309;51.450;-2.624;2023-04-28T11:16:57;8.15;;;4.20;;
24147;SDS011;12309;51.450;-2.624;2023-04-28T11:19:31;7.78;;;4.00;;
24147;SDS011;12309;51.450;-2.624;2023-04-28T11:22:04;7.32;;;4.53;;
24147;SDS011;12309;51.450;-2.624;2023-04-28T11:24:37;5.70;;;4.55;;
24147;SDS011;12309;51.450;-2.624;2023-04-28T11:27:03;7.45;;;4.50;;
24147;SDS011;12309;51.450;-2.624;2023-04-28T11:32:08;9.02;;;4.88;;
24147;SDS011;12309;51.450;-2.624;2023-04-28T11:34:34;5.30;;;3.60;;
24147;SDS011;12309;51.450;-2.624;2023-04-28T11:37:01;5.88;;;3.95;;
24147;SDS011;12309;51.450;-2.624;2023-04-28T11:39:28;8.55;;;3.80;;
24147;SDS011;12309;51.450;-2.624;2023-04-28T11:41:55;6.97;;;4.95;;
24147;SDS011;12309;51.450;-2.624;2023-04-28T11:44:22;12.05;;;4.97;;
24147;SDS011;12309;51.450;-2.624;2023-04-28T11:49:27;9.95;;;5.10;;
24147;SDS011;12309;51.450;-2.624;2023-04-28T11:51:55;10.63;;;4.88;;
24147;SDS011;12309;51.450;-2.624;2023-04-28T11:56:48;8.20;;;4.75;;
24147;SDS011;12309;51.450;-2.624;2023-04-28T11:59:14;7.07;;;4.82;;
24147;SDS011;12309;51.450;-2.624;2023-04-28T12:01:43;7.93;;;4.97;;
24147;SDS011;12309;51.450;-2.624;2023-04-28T12:04:13;7.22;;;4.57;;
24147;SDS011;12309;51.450;-2.624;2023-04-28T12:09:35;6.80;;;5.32;;
24147;SDS011;12309;51.450;-2.624;2023-04-28T12:12:44;10.88;;;6.90;;
24147;SDS011;12309;51.450;-2.624;2023-04-28T12:14:59;9.27;;;6.43;;
24147;SDS011;12309;51.450;-2.624;2023-04-28T12:17:27;9.50;;;6.60;;
24147;SDS011;12309;51.450;-2.624;2023-04-28T12:19:57;10.35;;;7.40;;
24147;SDS011;12309;51.450;-2.624;2023-04-28T12:22:25;9.23;;;6.88;;
24147;SDS011;12309;51.450;-2.624;2023-04-28T12:25:09;10.32;;;7.13;;
24147;SDS011;12309;51.450;-2.624;2023-04-28T12:27:37;8.75;;;6.45;;
24147;SDS011;12309;51.450;-2.624;2023-04-28T12:30:25;10.52;;;8.02;;
24147;SDS011;12309;51.450;-2.624;2023-04-28T12:32:53;12.93;;;8.93;;
24147;SDS011;12309;51.450;-2.624;2023-04-28T12:35:20;12.32;;;8.43;;
24147;SDS011;12309;51.450;-2.624;2023-04-28T12:37:47;13.32;;;9.65;;
24147;SDS011;12309;51.450;-2.624;2023-04-28T12:40:13;13.35;;;9.25;;
24147;SDS011;12309;51.450;-2.624;2023-04-28T12:42:39;14.48;;;10.48;;
24147;SDS011;12309;51.450;-2.624;2023-04-28T12:45:05;16.05;;;11.10;;
24147;SDS011;12309;51.450;-2.624;2023-04-28T12:47:31;19.98;;;12.60;;
24147;SDS011;12309;51.450;-2.624;2023-04-28T12:49:57;16.20;;;11.82;;
24147;SDS011;12309;51.450;-2.624;2023-04-28T12:52:23;19.05;;;10.73;;
24147;SDS011;12309;51.450;-2.624;2023-04-28T12:54:48;20.95;;;11.27;;
24147;SDS011;12309;51.450;-2.624;2023-04-28T12:57:17;18.75;;;11.13;;
24147;SDS011;12309;51.450;-2.624;2023-04-28T12:59:44;17.33;;;11.80;;
24147;SDS011;12309;51.450;-2.624;2023-04-28T13:02:13;17.25;;;11.40;;
24147;SDS011;12309;51.450;-2.624;2023-04-28T13:04:39;16.80;;;10.90;;
24147;SDS011;12309;51.450;-2.624;2023-04-28T13:07:10;20.38;;;10.70;;
24147;SDS011;12309;51.450;-2.624;2023-04-28T13:09:36;19.17;;;10.25;;
24147;SDS011;12309;51.450;-2.624;2023-04-28T13:12:03;17.83;;;10.70;;
24147;SDS011;12309;51.450;-2.624;2023-04-28T13:14:28;17.42;;;9.95;;
24147;SDS011;12309;51.450;-2.624;2023-04-28T13:16:55;17.75;;;11.23;;
24147;SDS011;12309;51.450;-2.624;2023-04-28T13:19:21;21.10;;;10.80;;
24147;SDS011;12309;51.450;-2.624;2023-04-28T13:21:47;14.27;;;9.60;;
24147;SDS011;12309;51.450;-2.624;2023-04-28T13:24:13;16.90;;;9.40;;
24147;SDS011;12309;51.450;-2.624;2023-04-28T13:26:38;16.02;;;9.98;;
24147;SDS011;12309;51.450;-2.624;2023-04-28T13:29:04;20.23;;;10.40;;
24147;SDS011;12309;51.450;-2.624;2023-04-28T13:31:32;15.00;;;8.73;;
24147;SDS011;12309;51.450;-2.624;2023-04-28T13:33:58;19.42;;;10.65;;
24147;SDS011;12309;51.450;-2.624;2023-04-28T13:36:26;16.40;;;10.18;;
24147;SDS011;12309;51.450;-2.624;2023-04-28T13:38:53;23.83;;;10.70;;
24147;SDS011;12309;51.450;-2.624;2023-04-28T13:41:19;14.52;;;9.10;;
24147;SDS011;12309;51.450;-2.624;2023-04-28T13:43:45;14.13;;;9.65;;
24147;SDS011;12309;51.450;-2.624;2023-04-28T13:46:11;11.68;;;8.07;;
24147;SDS011;12309;51.450;-2.624;2023-04-28T13:48:37;17.40;;;8.95;;
24147;SDS011;12309;51.450;-2.624;2023-04-28T13:51:04;14.45;;;9.13;;
24147;SDS011;12309;51.450;-2.624;2023-04-28T13:53:30;262.70;;;25.73;;
24147;SDS011;12309;51.450;-2.624;2023-04-28T13:55:56;14.88;;;8.07;;
24147;SDS011;12309;51.450;-2.624;2023-04-28T13:58:25;16.30;;;8.15;;
24147;SDS011;12309;51.450;-2.624;2023-04-28T14:00:53;14.18;;;7.82;;
24147;SDS011;12309;51.450;-2.624;2023-04-28T14:03:20;15.23;;;8.15;;
24147;SDS011;12309;51.450;-2.624;2023-04-28T14:05:50;15.73;;;8.20;;
24147;SDS011;12309;51.450;-2.624;2023-04-28T14:08:17;14.02;;;8.30;;
24147;SDS011;12309;51.450;-2.624;2023-04-28T14:10:43;12.23;;;7.35;;
24147;SDS011;12309;51.450;-2.624;2023-04-28T14:13:10;13.82;;;8.30;;
24147;SDS011;12309;51.450;-2.624;2023-04-28T14:15:35;12.63;;;8.73;;
24147;SDS011;12309;51.450;-2.624;2023-04-28T14:18:01;14.10;;;8.15;;
24147;SDS011;12309;51.450;-2.624;2023-04-28T14:20:27;17.00;;;7.78;;
24147;SDS011;12309;51.450;-2.624;2023-04-28T14:22:54;11.43;;;7.80;;
24147;SDS011;12309;51.450;-2.624;2023-04-28T14:25:20;10.20;;;6.70;;
24147;SDS011;12309;51.450;-2.624;2023-04-28T14:27:49;14.48;;;6.63;;
24147;SDS011;12309;51.450;-2.624;2023-04-28T14:30:15;10.63;;;6.57;;
24147;SDS011;12309;51.450;-2.624;2023-04-28T14:32:41;12.38;;;6.53;;
24147;SDS011;12309;51.450;-2.624;2023-04-28T14:35:08;10.38;;;6.40;;
24147;SDS011;12309;51.450;-2.624;2023-04-28T14:37:34;10.55;;;6.22;;
24147;SDS011;12309;51.450;-2.624;2023-04-28T14:40:00;10.35;;;6.20;;
24147;SDS011;12309;51.450;-2.624;2023-04-28T14:42:29;13.25;;;6.53;;
24147;SDS011;12309;51.450;-2.624;2023-04-28T14:44:59;14.77;;;7.53;;
24147;SDS011;12309;51.450;-2.624;2023-04-28T14:47:29;14.13;;;7.35;;
24147;SDS011;12309;51.450;-2.624;2023-04-28T14:49:55;13.57;;;7.30;;
24147;SDS011;12309;51.450;-2.624;2023-04-28T14:52:22;10.57;;;6.90;;
24147;SDS011;12309;51.450;-2.624;2023-04-28T14:54:49;12.25;;;7.57;;
24147;SDS011;12309;51.450;-2.624;2023-04-28T14:57:15;12.95;;;7.28;;
24147;SDS011;12309;51.450;-2.624;2023-04-28T14:59:42;13.35;;;8.88;;
24147;SDS011;12309;51.450;-2.624;2023-04-28T15:02:07;14.77;;;8.10;;